sensor_id;sensor_type;location;lat;lon;timestamp;pressure;altitude;pressure_sealevel;temperature;humidity
78337;BME280;67610;51.588;7.002;2023-09-18T00:00:20;99993.75;;;22.52;66.59
78337;BME280;67610;51.588;7.002;2023-09-18T00:02:47;99988.28;;;22.47;66.86
78337;BME280;67610;51.588;7.002;2023-09-18T00:05:12;99979.53;;;22.52;66.28
78337;BME280;67610;51.588;7.002;2023-09-18T00:07:39;99974.72;;;22.54;66.21
78337;BME280;67610;51.588;7.002;2023-09-18T00:10:05;99972.34;;;22.57;66.30
78337;BME280;67610;51.588;7.002;2023-09-18T00:12:30;99970.75;;;22.56;66.09
78337;BME280;67610;51.588;7.002;2023-09-18T00:14:55;99974.25;;;22.57;66.21
78337;BME280;67610;51.588;7.002;2023-09-18T00:17:21;99967.72;;;22.53;66.35
78337;BME280;67610;51.588;7.002;2023-09-18T00:19:49;99965.28;;;22.51;66.42
78337;BME280;67610;51.588;7.002;2023-09-18T00:22:16;99962.88;;;22.50;66.19
78337;BME280;67610;51.588;7.002;2023-09-18T00:24:42;99965.00;;;22.48;66.20
78337;BME280;67610;51.588;7.002;2023-09-18T00:27:07;99964.47;;;22.51;66.28
78337;BME280;67610;51.588;7.002;2023-09-18T00:29:32;99962.34;;;22.53;66.06
78337;BME280;67610;51.588;7.002;2023-09-18T00:31:58;99961.56;;;22.52;66.22
78337;BME280;67610;51.588;7.002;2023-09-18T00:34:23;99958.63;;;22.54;66.20
78337;BME280;67610;51.588;7.002;2023-09-18T00:36:48;99942.97;;;22.62;65.84
78337;BME280;67610;51.588;7.002;2023-09-18T00:39:14;99937.13;;;22.65;65.67
78337;BME280;67610;51.588;7.002;2023-09-18T00:41:40;99928.75;;;22.62;65.66
78337;BME280;67610;51.588;7.002;2023-09-18T00:44:06;99919.66;;;22.63;65.55
78337;BME280;67610;51.588;7.002;2023-09-18T00:46:32;99922.41;;;22.68;65.25
78337;BME280;67610;51.588;7.002;2023-09-18T00:48:58;99917.59;;;22.70;65.32
78337;BME280;67610;51.588;7.002;2023-09-18T00:51:23;99899.66;;;22.70;65.06
78337;BME280;67610;51.588;7.002;2023-09-18T00:53:49;99899.09;;;22.68;65.14
78337;BME280;67610;51.588;7.002;2023-09-18T00:56:15;99903.94;;;22.71;64.92
78337;BME280;67610;51.588;7.002;2023-09-18T00:58:42;99901.25;;;22.71;64.96
78337;BME280;67610;51.588;7.002;2023-09-18T01:01:08;99900.16;;;22.67;64.94
78337;BME280;67610;51.588;7.002;2023-09-18T01:03:35;99890.88;;;22.75;64.95
78337;BME280;67610;51.588;7.002;2023-09-18T01:06:00;99883.38;;;22.77;64.39
78337;BME280;67610;51.588;7.002;2023-09-18T01:08:26;99890.19;;;22.84;64.25
78337;BME280;67610;51.588;7.002;2023-09-18T01:11:13;99881.25;;;22.79;64.44
78337;BME280;67610;51.588;7.002;2023-09-18T01:13:54;99878.50;;;22.74;64.32
78337;BME280;67610;51.588;7.002;2023-09-18T01:16:38;99878.50;;;22.74;64.37
78337;BME280;67610;51.588;7.002;2023-09-18T01:19:04;99873.22;;;22.79;64.01
78337;BME280;67610;51.588;7.002;2023-09-18T01:21:30;99864.34;;;22.78;63.86
78337;BME280;67610;51.588;7.002;2023-09-18T01:23:55;99858.91;;;22.73;64.01
78337;BME280;67610;51.588;7.002;2023-09-18T01:26:20;99857.25;;;22.67;64.06
78337;BME280;67610;51.588;7.002;2023-09-18T01:28:46;99857.75;;;22.64;64.31
78337;BME280;67610;51.588;7.002;2023-09-18T01:31:11;99865.00;;;22.64;64.37
78337;BME280;67610;51.588;7.002;2023-09-18T01:33:38;99859.88;;;22.62;64.57
78337;BME280;67610;51.588;7.002;2023-09-18T01:36:06;99864.41;;;22.62;64.76
78337;BME280;67610;51.588;7.002;2023-09-18T01:38:33;99861.78;;;22.67;64.34
78337;BME280;67610;51.588;7.002;2023-09-18T01:40:59;99862.06;;;22.65;64.48
78337;BME280;67610;51.588;7.002;2023-09-18T01:43:25;99856.44;;;22.67;64.57
78337;BME280;67610;51.588;7.002;2023-09-18T01:45:50;99849.84;;;22.74;64.19
78337;BME280;67610;51.588;7.002;2023-09-18T01:48:16;99843.34;;;22.70;64.25
78337;BME280;67610;51.588;7.002;2023-09-18T01:50:41;99845.16;;;22.65;64.26
78337;BME280;67610;51.588;7.002;2023-09-18T01:53:07;99840.06;;;22.63;64.30
78337;BME280;67610;51.588;7.002;2023-09-18T01:55:33;99838.75;;;22.66;64.15
78337;BME280;67610;51.588;7.002;2023-09-18T01:57:59;99832.50;;;22.60;64.33
78337;BME280;67610;51.588;7.002;2023-09-18T02:00:24;99827.28;;;22.70;64.39
78337;BME280;67610;51.588;7.002;2023-09-18T02:02:50;99820.22;;;22.64;64.33
78337;BME280;67610;51.588;7.002;2023-09-18T02:05:15;99816.97;;;22.62;64.37
78337;BME280;67610;51.588;7.002;2023-09-18T02:07:40;99810.47;;;22.58;64.37
78337;BME280;67610;51.588;7.002;2023-09-18T02:10:06;99814.19;;;22.57;64.36
78337;BME280;67610;51.588;7.002;2023-09-18T02:12:32;99812.59;;;22.56;64.78
78337;BME280;67610;51.588;7.002;2023-09-18T02:14:57;99817.13;;;22.56;64.23
78337;BME280;67610;51.588;7.002;2023-09-18T02:17:23;99809.91;;;22.56;64.40
78337;BME280;67610;51.588;7.002;2023-09-18T02:19:49;99815.19;;;22.51;64.57
78337;BME280;67610;51.588;7.002;2023-09-18T02:22:15;99808.53;;;22.54;64.63
78337;BME280;67610;51.588;7.002;2023-09-18T02:24:40;99805.03;;;22.53;64.50
78337;BME280;67610;51.588;7.002;2023-09-18T02:27:05;99792.75;;;22.57;64.16
78337;BME280;67610;51.588;7.002;2023-09-18T02:29:31;99794.38;;;22.58;64.06
78337;BME280;67610;51.588;7.002;2023-09-18T02:31:56;99787.16;;;22.59;63.94
78337;BME280;67610;51.588;7.002;2023-09-18T02:34:22;99784.72;;;22.57;64.01
78337;BME280;67610;51.588;7.002;2023-09-18T02:36:47;99778.78;;;22.55;63.99
78337;BME280;67610;51.588;7.002;2023-09-18T02:39:13;99782.00;;;22.52;64.25
78337;BME280;67610;51.588;7.002;2023-09-18T02:41:38;99773.94;;;22.52;64.48
78337;BME280;67610;51.588;7.002;2023-09-18T02:44:04;99756.78;;;22.53;64.43
78337;BME280;67610;51.588;7.002;2023-09-18T02:46:29;99754.59;;;22.50;64.27
78337;BME280;67610;51.588;7.002;2023-09-18T02:48:55;99746.81;;;22.49;64.66
78337;BME280;67610;51.588;7.002;2023-09-18T02:51:20;99748.19;;;22.51;63.91
78337;BME280;67610;51.588;7.002;2023-09-18T02:53:45;99739.09;;;22.52;64.01
78337;BME280;67610;51.588;7.002;2023-09-18T02:56:11;99732.88;;;22.47;64.31
78337;BME280;67610;51.588;7.002;2023-09-18T02:58:36;99722.16;;;22.47;64.17
78337;BME280;67610;51.588;7.002;2023-09-18T03:01:06;99715.97;;;22.46;64.16
78337;BME280;67610;51.588;7.002;2023-09-18T03:03:33;99715.97;;;22.46;63.86
78337;BME280;67610;51.588;7.002;2023-09-18T03:06:02;99710.53;;;22.41;64.47
78337;BME280;67610;51.588;7.002;2023-09-18T03:08:28;99703.03;;;22.38;64.46
78337;BME280;67610;51.588;7.002;2023-09-18T03:10:53;99712.13;;;22.37;64.32
78337;BME280;67610;51.588;7.002;2023-09-18T03:13:19;99719.88;;;22.39;64.72
78337;BME280;67610;51.588;7.002;2023-09-18T03:15:45;99713.75;;;22.38;64.50
78337;BME280;67610;51.588;7.002;2023-09-18T03:18:12;99711.31;;;22.37;64.18
78337;BME280;67610;51.588;7.002;2023-09-18T03:20:37;99699.78;;;22.36;64.54
78337;BME280;67610;51.588;7.002;2023-09-18T03:23:03;99709.69;;;22.36;64.28
78337;BME280;67610;51.588;7.002;2023-09-18T03:25:29;99695.75;;;22.34;64.54
78337;BME280;67610;51.588;7.002;2023-09-18T03:27:56;99699.19;;;22.29;64.50
78337;BME280;67610;51.588;7.002;2023-09-18T03:30:23;99688.94;;;22.26;64.96
78337;BME280;67610;51.588;7.002;2023-09-18T03:32:49;99675.56;;;22.26;65.10
78337;BME280;67610;51.588;7.002;2023-09-18T03:35:15;99669.16;;;22.27;65.08
78337;BME280;67610;51.588;7.002;2023-09-18T03:37:48;99664.28;;;22.24;65.07
78337;BME280;67610;51.588;7.002;2023-09-18T03:40:15;99657.91;;;22.30;65.24
78337;BME280;67610;51.588;7.002;2023-09-18T03:42:40;99655.75;;;22.27;65.11
78337;BME280;67610;51.588;7.002;2023-09-18T03:45:07;99654.69;;;22.28;64.83
78337;BME280;67610;51.588;7.002;2023-09-18T03:47:37;99647.81;;;22.37;64.54
78337;BME280;67610;51.588;7.002;2023-09-18T03:50:07;99642.44;;;22.37;64.33
78337;BME280;67610;51.588;7.002;2023-09-18T03:52:32;99640.84;;;22.36;64.06
78337;BME280;67610;51.588;7.002;2023-09-18T03:54:58;99643.25;;;22.38;63.88
78337;BME280;67610;51.588;7.002;2023-09-18T03:57:23;99637.34;;;22.36;64.24
78337;BME280;67610;51.588;7.002;2023-09-18T03:59:49;99632.84;;;22.41;63.71
78337;BME280;67610;51.588;7.002;2023-09-18T04:02:14;99624.34;;;22.49;63.48
78337;BME280;67610;51.588;7.002;2023-09-18T04:04:39;99629.75;;;22.54;63.11
78337;BME280;67610;51.588;7.002;2023-09-18T04:07:06;99624.47;;;22.59;62.89
78337;BME280;67610;51.588;7.002;2023-09-18T04:09:31;99607.66;;;22.64;62.46
78337;BME280;67610;51.588;7.002;2023-09-18T04:11:57;99613.25;;;22.62;62.87
78337;BME280;67610;51.588;7.002;2023-09-18T04:14:22;99612.25;;;22.68;62.65
78337;BME280;67610;51.588;7.002;2023-09-18T04:16:48;99603.66;;;22.71;62.87
78337;BME280;67610;51.588;7.002;2023-09-18T04:19:13;99607.44;;;22.70;62.73
78337;BME280;67610;51.588;7.002;2023-09-18T04:21:38;99602.06;;;22.70;62.86
78337;BME280;67610;51.588;7.002;2023-09-18T04:24:04;99590.78;;;22.68;63.06
78337;BME280;67610;51.588;7.002;2023-09-18T04:26:30;99594.25;;;22.64;63.29
78337;BME280;67610;51.588;7.002;2023-09-18T04:29:02;99589.66;;;22.64;63.52
78337;BME280;67610;51.588;7.002;2023-09-18T04:34:36;99598.28;;;22.66;63.42
78337;BME280;67610;51.588;7.002;2023-09-18T04:37:02;99606.06;;;22.68;63.08
78337;BME280;67610;51.588;7.002;2023-09-18T04:39:28;99620.84;;;22.70;63.31
78337;BME280;67610;51.588;7.002;2023-09-18T04:41:55;99642.56;;;22.74;62.84
78337;BME280;67610;51.588;7.002;2023-09-18T04:44:20;99634.28;;;22.75;63.04
78337;BME280;67610;51.588;7.002;2023-09-18T04:46:45;99645.00;;;22.75;63.17
78337;BME280;67610;51.588;7.002;2023-09-18T04:49:11;99636.19;;;22.80;62.93
78337;BME280;67610;51.588;7.002;2023-09-18T04:51:38;99625.47;;;22.80;62.60
78337;BME280;67610;51.588;7.002;2023-09-18T04:54:04;99629.81;;;22.86;62.33
78337;BME280;67610;51.588;7.002;2023-09-18T04:56:30;99627.13;;;22.86;62.37
78337;BME280;67610;51.588;7.002;2023-09-18T04:58:55;99617.81;;;22.93;62.45
78337;BME280;67610;51.588;7.002;2023-09-18T05:01:20;99622.34;;;22.93;61.89
78337;BME280;67610;51.588;7.002;2023-09-18T05:03:46;99636.03;;;22.91;62.45
78337;BME280;67610;51.588;7.002;2023-09-18T05:06:13;99644.56;;;22.88;62.39
78337;BME280;67610;51.588;7.002;2023-09-18T05:08:39;99643.47;;;22.84;62.59
78337;BME280;67610;51.588;7.002;2023-09-18T05:11:04;99648.63;;;22.91;62.48
78337;BME280;67610;51.588;7.002;2023-09-18T05:13:30;99669.00;;;22.92;62.65
78337;BME280;67610;51.588;7.002;2023-09-18T05:15:55;99676.75;;;22.88;62.39
78337;BME280;67610;51.588;7.002;2023-09-18T05:18:20;99668.44;;;22.90;62.32
78337;BME280;67610;51.588;7.002;2023-09-18T05:20:46;99667.41;;;22.91;62.56
78337;BME280;67610;51.588;7.002;2023-09-18T05:23:12;99672.00;;;22.96;62.23
78337;BME280;67610;51.588;7.002;2023-09-18T05:25:37;99659.63;;;22.89;62.33
78337;BME280;67610;51.588;7.002;2023-09-18T05:28:04;99652.31;;;22.85;62.80
78337;BME280;67610;51.588;7.002;2023-09-18T05:30:32;99648.53;;;22.81;62.92
78337;BME280;67610;51.588;7.002;2023-09-18T05:33:04;99655.25;;;22.83;63.14
78337;BME280;67610;51.588;7.002;2023-09-18T05:35:41;99643.22;;;22.86;62.95
78337;BME280;67610;51.588;7.002;2023-09-18T05:38:08;99632.53;;;22.91;62.65
78337;BME280;67610;51.588;7.002;2023-09-18T05:40:34;99642.44;;;22.90;62.60
78337;BME280;67610;51.588;7.002;2023-09-18T05:43:00;99648.31;;;22.87;62.88
78337;BME280;67610;51.588;7.002;2023-09-18T05:45:26;99655.00;;;22.85;63.07
78337;BME280;67610;51.588;7.002;2023-09-18T05:47:52;99653.69;;;22.87;63.14
78337;BME280;67610;51.588;7.002;2023-09-18T05:50:30;99653.06;;;22.80;63.32
78337;BME280;67610;51.588;7.002;2023-09-18T05:52:57;99651.47;;;22.79;63.52
78337;BME280;67610;51.588;7.002;2023-09-18T05:55:28;99661.94;;;22.81;63.66
78337;BME280;67610;51.588;7.002;2023-09-18T05:57:54;99649.56;;;22.75;63.68
78337;BME280;67610;51.588;7.002;2023-09-18T06:00:19;99649.56;;;22.75;64.44
78337;BME280;67610;51.588;7.002;2023-09-18T06:02:45;99658.16;;;22.77;64.03
78337;BME280;67610;51.588;7.002;2023-09-18T06:05:11;99658.69;;;22.79;63.87
78337;BME280;67610;51.588;7.002;2023-09-18T06:07:37;99656.84;;;22.79;63.73
78337;BME280;67610;51.588;7.002;2023-09-18T06:10:02;99665.16;;;22.78;63.88
78337;BME280;67610;51.588;7.002;2023-09-18T06:12:27;99672.66;;;22.81;64.11
78337;BME280;67610;51.588;7.002;2023-09-18T06:14:53;99676.25;;;22.91;63.84
78337;BME280;67610;51.588;7.002;2023-09-18T06:17:18;99668.72;;;22.88;63.87
78337;BME280;67610;51.588;7.002;2023-09-18T06:19:44;99683.66;;;22.79;64.11
78337;BME280;67610;51.588;7.002;2023-09-18T06:22:10;99680.69;;;22.81;64.29
78337;BME280;67610;51.588;7.002;2023-09-18T06:24:36;99684.47;;;22.80;63.95
78337;BME280;67610;51.588;7.002;2023-09-18T06:27:02;99691.19;;;22.82;64.09
78337;BME280;67610;51.588;7.002;2023-09-18T06:29:32;99698.97;;;22.84;64.07
78337;BME280;67610;51.588;7.002;2023-09-18T06:31:57;99693.81;;;22.77;64.22
78337;BME280;67610;51.588;7.002;2023-09-18T06:34:23;99686.88;;;22.81;63.83
78337;BME280;67610;51.588;7.002;2023-09-18T06:36:48;99693.88;;;22.82;63.84
78337;BME280;67610;51.588;7.002;2023-09-18T06:39:14;99693.88;;;22.82;64.18
78337;BME280;67610;51.588;7.002;2023-09-18T06:41:40;99698.72;;;22.85;64.08
78337;BME280;67610;51.588;7.002;2023-09-18T06:44:05;99695.47;;;22.83;64.40
78337;BME280;67610;51.588;7.002;2023-09-18T06:46:31;99687.50;;;22.88;64.45
78337;BME280;67610;51.588;7.002;2023-09-18T06:48:56;99677.03;;;22.92;63.96
78337;BME280;67610;51.588;7.002;2023-09-18T06:51:26;99686.72;;;22.93;63.90
78337;BME280;67610;51.588;7.002;2023-09-18T06:53:52;99692.97;;;23.04;63.61
78337;BME280;67610;51.588;7.002;2023-09-18T06:56:18;99696.97;;;23.01;63.63
78337;BME280;67610;51.588;7.002;2023-09-18T06:58:43;99702.94;;;23.08;63.00
78337;BME280;67610;51.588;7.002;2023-09-18T07:01:08;99711.25;;;23.07;63.09
78337;BME280;67610;51.588;7.002;2023-09-18T07:03:35;99717.72;;;23.11;62.87
78337;BME280;67610;51.588;7.002;2023-09-18T07:06:02;99715.03;;;23.11;62.58
78337;BME280;67610;51.588;7.002;2023-09-18T07:08:27;99721.47;;;23.10;62.96
78337;BME280;67610;51.588;7.002;2023-09-18T07:10:53;99723.13;;;23.16;62.57
78337;BME280;67610;51.588;7.002;2023-09-18T07:13:18;99721.53;;;23.20;62.24
78337;BME280;67610;51.588;7.002;2023-09-18T07:15:44;99722.72;;;23.29;62.62
78337;BME280;67610;51.588;7.002;2023-09-18T07:18:10;99728.94;;;23.34;61.87
78337;BME280;67610;51.588;7.002;2023-09-18T07:20:40;99734.06;;;23.36;62.05
78337;BME280;67610;51.588;7.002;2023-09-18T07:23:05;99743.22;;;23.40;62.28
78337;BME280;67610;51.588;7.002;2023-09-18T07:25:30;99727.72;;;23.47;61.49
78337;BME280;67610;51.588;7.002;2023-09-18T07:27:56;99734.63;;;23.43;61.76
78337;BME280;67610;51.588;7.002;2023-09-18T07:30:21;99733.09;;;23.52;61.72
78337;BME280;67610;51.588;7.002;2023-09-18T07:32:47;99733.09;;;23.52;61.89
78337;BME280;67610;51.588;7.002;2023-09-18T07:35:12;99739.31;;;23.57;61.54
78337;BME280;67610;51.588;7.002;2023-09-18T07:37:41;99736.41;;;23.64;61.80
78337;BME280;67610;51.588;7.002;2023-09-18T07:40:07;99740.78;;;23.75;61.28
78337;BME280;67610;51.588;7.002;2023-09-18T07:42:32;99739.72;;;23.76;60.84
78337;BME280;67610;51.588;7.002;2023-09-18T07:44:58;99748.03;;;23.75;61.20
78337;BME280;67610;51.588;7.002;2023-09-18T07:47:23;99747.78;;;23.76;60.88
78337;BME280;67610;51.588;7.002;2023-09-18T07:49:49;99748.59;;;23.77;60.78
78337;BME280;67610;51.588;7.002;2023-09-18T07:52:19;99752.41;;;23.86;60.42
78337;BME280;67610;51.588;7.002;2023-09-18T07:54:44;99752.63;;;23.79;60.60
78337;BME280;67610;51.588;7.002;2023-09-18T07:57:10;99737.63;;;23.83;60.78
78337;BME280;67610;51.588;7.002;2023-09-18T07:59:36;99757.50;;;23.87;60.30
78337;BME280;67610;51.588;7.002;2023-09-18T08:02:02;99749.75;;;23.91;60.00
78337;BME280;67610;51.588;7.002;2023-09-18T08:04:27;99757.28;;;23.94;59.42
78337;BME280;67610;51.588;7.002;2023-09-18T08:06:53;99763.44;;;23.89;59.28
78337;BME280;67610;51.588;7.002;2023-09-18T08:09:20;99765.56;;;23.87;58.85
78337;BME280;67610;51.588;7.002;2023-09-18T08:11:46;99765.56;;;23.87;59.40
78337;BME280;67610;51.588;7.002;2023-09-18T08:14:11;99776.84;;;23.89;59.12
78337;BME280;67610;51.588;7.002;2023-09-18T08:16:40;99784.13;;;23.94;58.37
78337;BME280;67610;51.588;7.002;2023-09-18T08:19:05;99768.53;;;23.86;58.56
78337;BME280;67610;51.588;7.002;2023-09-18T08:21:32;99752.94;;;23.88;58.32
78337;BME280;67610;51.588;7.002;2023-09-18T08:23:57;99760.19;;;23.87;58.04
78337;BME280;67610;51.588;7.002;2023-09-18T08:26:22;99768.28;;;23.92;57.54
78337;BME280;67610;51.588;7.002;2023-09-18T08:28:48;99774.47;;;23.93;58.29
78337;BME280;67610;51.588;7.002;2023-09-18T08:31:14;99785.50;;;23.96;57.73
78337;BME280;67610;51.588;7.002;2023-09-18T08:33:41;99796.84;;;24.03;57.64
78337;BME280;67610;51.588;7.002;2023-09-18T08:36:07;99793.06;;;23.99;57.04
78337;BME280;67610;51.588;7.002;2023-09-18T08:38:32;99788.53;;;24.05;56.94
78337;BME280;67610;51.588;7.002;2023-09-18T08:40:58;99787.78;;;24.09;57.37
78337;BME280;67610;51.588;7.002;2023-09-18T08:43:24;99784.88;;;24.21;56.94
78337;BME280;67610;51.588;7.002;2023-09-18T08:45:52;99783.91;;;24.42;56.44
78337;BME280;67610;51.588;7.002;2023-09-18T08:48:18;99792.84;;;24.58;55.46
78337;BME280;67610;51.588;7.002;2023-09-18T08:50:45;99782.91;;;24.58;55.47
78337;BME280;67610;51.588;7.002;2023-09-18T08:53:11;99779.41;;;24.58;55.12
78337;BME280;67610;51.588;7.002;2023-09-18T08:55:37;99783.94;;;24.52;55.61
78337;BME280;67610;51.588;7.002;2023-09-18T08:58:02;99804.16;;;24.60;55.99
78337;BME280;67610;51.588;7.002;2023-09-18T09:00:28;99786.94;;;24.66;54.96
78337;BME280;67610;51.588;7.002;2023-09-18T09:02:54;99780.22;;;24.63;54.71
78337;BME280;67610;51.588;7.002;2023-09-18T09:05:20;99784.28;;;24.71;54.84
78337;BME280;67610;51.588;7.002;2023-09-18T09:07:46;99792.06;;;24.72;54.54
78337;BME280;67610;51.588;7.002;2023-09-18T09:10:11;99804.75;;;24.72;55.01
78337;BME280;67610;51.588;7.002;2023-09-18T09:13:06;99809.31;;;24.71;54.55
78337;BME280;67610;51.588;7.002;2023-09-18T09:15:42;99809.09;;;24.78;53.94
78337;BME280;67610;51.588;7.002;2023-09-18T09:18:11;99802.06;;;24.77;54.39
78337;BME280;67610;51.588;7.002;2023-09-18T09:20:37;99794.03;;;24.82;54.15
78337;BME280;67610;51.588;7.002;2023-09-18T09:23:04;99795.13;;;24.86;53.81
78337;BME280;67610;51.588;7.002;2023-09-18T09:25:31;99797.88;;;25.11;53.63
78337;BME280;67610;51.588;7.002;2023-09-18T09:27:58;99786.03;;;25.42;52.63
78337;BME280;67610;51.588;7.002;2023-09-18T09:30:25;99791.19;;;25.64;51.96
78337;BME280;67610;51.588;7.002;2023-09-18T09:32:52;99789.28;;;25.70;51.34
78337;BME280;67610;51.588;7.002;2023-09-18T09:37:44;99797.38;;;25.75;51.16
78337;BME280;67610;51.588;7.002;2023-09-18T09:40:11;99792.53;;;25.77;50.34
78337;BME280;67610;51.588;7.002;2023-09-18T09:42:40;99795.22;;;25.77;50.82
78337;BME280;67610;51.588;7.002;2023-09-18T09:45:11;99791.47;;;25.73;50.89
78337;BME280;67610;51.588;7.002;2023-09-18T09:47:37;99800.34;;;25.63;50.13
78337;BME280;67610;51.588;7.002;2023-09-18T09:50:07;99808.16;;;25.70;50.27
78337;BME280;67610;51.588;7.002;2023-09-18T09:52:34;99823.78;;;25.88;49.59
78337;BME280;67610;51.588;7.002;2023-09-18T09:55:00;99822.16;;;25.87;49.27
78337;BME280;67610;51.588;7.002;2023-09-18T09:57:25;99824.84;;;25.82;49.67
78337;BME280;67610;51.588;7.002;2023-09-18T09:59:51;99807.09;;;25.76;49.34
78337;BME280;67610;51.588;7.002;2023-09-18T10:02:19;99809.25;;;25.74;49.92
78337;BME280;67610;51.588;7.002;2023-09-18T10:04:49;99808.69;;;25.82;49.92
78337;BME280;67610;51.588;7.002;2023-09-18T10:07:19;99809.47;;;26.17;48.60
78337;BME280;67610;51.588;7.002;2023-09-18T10:09:47;99812.47;;;26.11;48.10
78337;BME280;67610;51.588;7.002;2023-09-18T10:12:15;99818.31;;;26.38;48.11
78337;BME280;67610;51.588;7.002;2023-09-18T10:14:47;99820.22;;;26.32;48.46
78337;BME280;67610;51.588;7.002;2023-09-18T10:17:18;99814.81;;;26.32;48.54
78337;BME280;67610;51.588;7.002;2023-09-18T10:20:07;99816.06;;;26.60;47.65
78337;BME280;67610;51.588;7.002;2023-09-18T10:22:38;99809.38;;;26.48;47.99
78337;BME280;67610;51.588;7.002;2023-09-18T10:25:17;99813.97;;;26.47;47.26
78337;BME280;67610;51.588;7.002;2023-09-18T10:27:46;99808.47;;;26.67;46.78
78337;BME280;67610;51.588;7.002;2023-09-18T10:30:13;99808.47;;;26.72;46.81
78337;BME280;67610;51.588;7.002;2023-09-18T10:32:40;99805.44;;;26.94;45.42
78337;BME280;67610;51.588;7.002;2023-09-18T10:35:06;99811.44;;;26.76;46.40
78337;BME280;67610;51.588;7.002;2023-09-18T10:37:33;99805.16;;;26.90;46.13
78337;BME280;67610;51.588;7.002;2023-09-18T10:40:00;99813.44;;;27.04;46.26
78337;BME280;67610;51.588;7.002;2023-09-18T10:42:26;99814.72;;;27.17;46.00
78337;BME280;67610;51.588;7.002;2023-09-18T10:44:52;99807.38;;;27.22;45.33
78337;BME280;67610;51.588;7.002;2023-09-18T10:47:18;99800.69;;;27.15;45.89
78337;BME280;67610;51.588;7.002;2023-09-18T10:49:45;99801.06;;;27.42;45.07
78337;BME280;67610;51.588;7.002;2023-09-18T10:52:11;99805.13;;;27.39;45.63
78337;BME280;67610;51.588;7.002;2023-09-18T10:54:37;99811.06;;;27.36;45.76
78337;BME280;67610;51.588;7.002;2023-09-18T10:57:04;99814.69;;;27.60;45.08
78337;BME280;67610;51.588;7.002;2023-09-18T10:59:30;99804.50;;;27.52;45.60
78337;BME280;67610;51.588;7.002;2023-09-18T11:01:56;99813.81;;;27.70;44.92
78337;BME280;67610;51.588;7.002;2023-09-18T11:04:28;99805.13;;;27.73;44.51
78337;BME280;67610;51.588;7.002;2023-09-18T11:09:24;99811.13;;;27.99;43.82
78337;BME280;67610;51.588;7.002;2023-09-18T11:14:33;99809.78;;;28.25;42.50
78337;BME280;67610;51.588;7.002;2023-09-18T11:17:06;99807.13;;;28.44;42.85
78337;BME280;67610;51.588;7.002;2023-09-18T11:20:01;99799.91;;;28.63;41.81
78337;BME280;67610;51.588;7.002;2023-09-18T11:22:27;99805.63;;;28.56;42.21
78337;BME280;67610;51.588;7.002;2023-09-18T11:24:52;99803.13;;;28.65;42.50
78337;BME280;67610;51.588;7.002;2023-09-18T11:27:24;99801.72;;;28.67;42.63
78337;BME280;67610;51.588;7.002;2023-09-18T11:29:51;99808.91;;;28.77;41.05
78337;BME280;67610;51.588;7.002;2023-09-18T11:32:37;99794.22;;;28.83;41.61
78337;BME280;67610;51.588;7.002;2023-09-18T11:35:07;99793.63;;;28.86;40.92
78337;BME280;67610;51.588;7.002;2023-09-18T11:37:33;99794.56;;;28.76;41.08
78337;BME280;67610;51.588;7.002;2023-09-18T11:39:59;99792.69;;;28.53;41.72
78337;BME280;67610;51.588;7.002;2023-09-18T11:42:25;99788.59;;;28.56;42.04
78337;BME280;67610;51.588;7.002;2023-09-18T11:44:52;99774.88;;;28.47;41.31
78337;BME280;67610;51.588;7.002;2023-09-18T11:47:19;99782.38;;;28.31;42.25
78337;BME280;67610;51.588;7.002;2023-09-18T11:49:56;99784.34;;;28.26;42.27
78337;BME280;67610;51.588;7.002;2023-09-18T11:52:25;99793.44;;;28.35;41.41
78337;BME280;67610;51.588;7.002;2023-09-18T11:54:51;99789.63;;;28.12;41.91
78337;BME280;67610;51.588;7.002;2023-09-18T11:57:18;99784.56;;;28.06;42.06
78337;BME280;67610;51.588;7.002;2023-09-18T11:59:45;99791.47;;;27.88;42.09
78337;BME280;67610;51.588;7.002;2023-09-18T12:02:30;99780.53;;;27.75;41.81
78337;BME280;67610;51.588;7.002;2023-09-18T12:05:05;99776.19;;;27.74;42.56
78337;BME280;67610;51.588;7.002;2023-09-18T12:07:31;99764.69;;;27.63;42.89
78337;BME280;67610;51.588;7.002;2023-09-18T12:09:57;99771.91;;;27.73;42.35
78337;BME280;67610;51.588;7.002;2023-09-18T12:12:22;99761.34;;;27.71;43.00
78337;BME280;67610;51.588;7.002;2023-09-18T12:14:48;99763.69;;;27.54;42.98
78337;BME280;67610;51.588;7.002;2023-09-18T12:17:16;99768.16;;;27.35;43.62
78337;BME280;67610;51.588;7.002;2023-09-18T12:19:52;99767.34;;;27.34;43.85
78337;BME280;67610;51.588;7.002;2023-09-18T12:22:29;99770.84;;;27.35;43.47
78337;BME280;67610;51.588;7.002;2023-09-18T12:25:14;99761.22;;;27.24;44.16
78337;BME280;67610;51.588;7.002;2023-09-18T12:27:41;99760.69;;;27.22;43.57
78337;BME280;67610;51.588;7.002;2023-09-18T12:30:07;99766.34;;;27.20;43.53
78337;BME280;67610;51.588;7.002;2023-09-18T12:32:36;99759.91;;;27.16;43.78
78337;BME280;67610;51.588;7.002;2023-09-18T12:35:02;99773.72;;;27.10;44.24
78337;BME280;67610;51.588;7.002;2023-09-18T12:37:32;99767.84;;;27.02;44.80
78337;BME280;67610;51.588;7.002;2023-09-18T12:39:57;99774.38;;;26.96;44.43
78337;BME280;67610;51.588;7.002;2023-09-18T12:42:23;99775.75;;;26.89;44.17
78337;BME280;67610;51.588;7.002;2023-09-18T12:44:49;99779.03;;;26.81;44.61
78337;BME280;67610;51.588;7.002;2023-09-18T12:47:14;99775.25;;;26.82;44.54
78337;BME280;67610;51.588;7.002;2023-09-18T12:49:40;99767.97;;;26.82;44.42
78337;BME280;67610;51.588;7.002;2023-09-18T12:52:06;99761.97;;;26.90;44.95
78337;BME280;67610;51.588;7.002;2023-09-18T12:54:44;99760.78;;;27.07;44.85
78337;BME280;67610;51.588;7.002;2023-09-18T12:57:19;99749.44;;;27.10;43.41
78337;BME280;67610;51.588;7.002;2023-09-18T12:59:46;99759.09;;;27.16;43.14
78337;BME280;67610;51.588;7.002;2023-09-18T13:02:17;99744.56;;;27.12;43.55
78337;BME280;67610;51.588;7.002;2023-09-18T13:04:53;99740.78;;;27.13;43.40
78337;BME280;67610;51.588;7.002;2023-09-18T13:07:19;99747.22;;;27.17;43.75
78337;BME280;67610;51.588;7.002;2023-09-18T13:10:02;99747.19;;;27.22;42.57